Time;durP1;ratioP1;P1;durP2;ratioP2;P2;SDS_P1;SDS_P2;PMS_P1;PMS_P2;Temp;Humidity;BMP_temperature;BMP_pressure;BME280_temperature;BME280_humidity;BME280_pressure;Samples;Min_cycle;Max_cycle;Signal;HPM_P1;HPM_P2
2021/03/21 00:01:11;;;;;;;20.80;17.02;;;;;;;;;;4083939;35;20210;-83
2021/03/21 00:03:40;;;;;;;29.27;23.20;;;;;;;;;;4087875;35;20084;-84
2021/03/21 00:06:08;;;;;;;31.33;26.23;;;;;;;;;;4087404;35;20054;-83
2021/03/21 00:08:36;;;;;;;21.58;15.70;;;;;;;;;;4082910;35;20447;-84
2021/03/21 00:11:06;;;;;;;22.67;15.77;;;;;;;;;;4083944;35;20132;-84
2021/03/21 00:13:35;;;;;;;39.22;24.48;;;;;;;;;;4086660;35;20544;-84
2021/03/21 00:16:04;;;;;;;25.05;22.37;;;;;;;;;;4086163;35;20445;-84
2021/03/21 00:18:33;;;;;;;29.37;23.50;;;;;;;;;;4080094;35;20062;-84
2021/03/21 00:21:02;;;;;;;26.75;22.42;;;;;;;;;;4078708;35;20058;-84
2021/03/21 00:23:30;;;;;;;30.15;22.87;;;;;;;;;;4086708;35;20061;-84
2021/03/21 00:25:58;;;;;;;24.70;18.95;;;;;;;;;;4087906;35;20096;-84
2021/03/21 00:28:28;;;;;;;31.12;20.90;;;;;;;;;;4089666;35;20113;-84
2021/03/21 00:30:57;;;;;;;31.08;18.15;;;;;;;;;;4086624;35;20039;-84
2021/03/21 00:33:27;;;;;;;12.37;2.95;;;;;;;;;;4093403;35;20061;-84
2021/03/21 00:35:55;;;;;;;39.20;31.10;;;;;;;;;;4089075;35;20538;-84
2021/03/21 00:38:35;;;;;;;25.85;15.52;;;;;;;;;;4083635;35;20161;-84
2021/03/21 00:41:09;;;;;;;19.30;9.80;;;;;;;;;;4086650;35;20109;-84
2021/03/21 00:43:37;;;;;;;32.28;20.85;;;;;;;;;;4089935;35;20450;-84
2021/03/21 00:46:06;;;;;;;25.60;17.08;;;;;;;;;;4091639;35;20066;-85
2021/03/21 00:48:36;;;;;;;12.20;2.70;;;;;;;;;;4085278;35;20081;-84
2021/03/21 00:51:04;;;;;;;9.45;2.50;;;;;;;;;;4086591;35;20093;-83
2021/03/21 00:53:33;;;;;;;20.85;2.97;;;;;;;;;;4091482;35;20123;-84
2021/03/21 00:56:01;;;;;;;16.08;2.55;;;;;;;;;;4088023;35;20061;-84
2021/03/21 00:58:29;;;;;;;11.15;2.20;;;;;;;;;;4087178;35;20086;-83
2021/03/21 01:00:59;;;;;;;16.73;3.17;;;;;;;;;;4085700;35;20583;-84
2021/03/21 01:03:30;;;;;;;12.27;2.62;;;;;;;;;;4089392;35;20154;-84
2021/03/21 01:05:59;;;;;;;13.07;2.72;;;;;;;;;;4083736;35;20058;-84
2021/03/21 01:08:30;;;;;;;14.63;2.83;;;;;;;;;;4086095;35;20114;-83
2021/03/21 01:11:00;;;;;;;13.98;2.30;;;;;;;;;;4092682;35;20062;-83
2021/03/21 01:13:28;;;;;;;11.02;2.05;;;;;;;;;;4090587;35;20065;-83
2021/03/21 01:15:56;;;;;;;7.75;2.22;;;;;;;;;;4089380;35;20054;-84
2021/03/21 01:18:26;;;;;;;12.37;2.40;;;;;;;;;;4087537;35;20090;-83
2021/03/21 01:20:54;;;;;;;13.27;2.30;;;;;;;;;;4090230;35;20120;-83
2021/03/21 01:23:34;;;;;;;14.00;2.70;;;;;;;;;;4091086;35;20066;-83
2021/03/21 01:26:06;;;;;;;11.65;2.65;;;;;;;;;;4080907;35;20364;-84
2021/03/21 01:28:36;;;;;;;11.70;4.00;;;;;;;;;;4071326;35;20116;-84
2021/03/21 01:31:20;;;;;;;9.20;2.37;;;;;;;;;;4074917;35;20070;-85
2021/03/21 01:34:12;;;;;;;8.18;4.82;;;;;;;;;;4086056;35;20103;-84
2021/03/21 01:36:41;;;;;;;11.12;4.53;;;;;;;;;;4074683;35;20120;-84
2021/03/21 01:39:20;;;;;;;13.57;6.47;;;;;;;;;;4094148;35;20608;-83
2021/03/21 01:41:56;;;;;;;11.18;6.03;;;;;;;;;;4096600;35;20113;-82
2021/03/21 01:44:24;;;;;;;14.75;2.55;;;;;;;;;;4092787;35;20117;-83
2021/03/21 01:47:02;;;;;;;7.72;1.87;;;;;;;;;;4089294;35;20105;-83
2021/03/21 01:49:33;;;;;;;11.93;2.40;;;;;;;;;;4096121;35;20113;-83
2021/03/21 01:52:02;;;;;;;9.77;2.25;;;;;;;;;;4097411;35;20101;-83
2021/03/21 01:54:31;;;;;;;9.60;2.08;;;;;;;;;;4092545;35;20061;-84
2021/03/21 01:56:59;;;;;;;10.05;2.17;;;;;;;;;;4090664;35;20848;-83
2021/03/21 01:59:29;;;;;;;7.87;2.12;;;;;;;;;;4085343;35;20066;-84
2021/03/21 02:01:59;;;;;;;9.98;2.42;;;;;;;;;;4089698;35;20112;-83
2021/03/21 02:04:34;;;;;;;9.82;2.10;;;;;;;;;;4088303;35;20057;-83
2021/03/21 02:07:08;;;;;;;;;;;;;;;;;;4088977;35;20117;-83
2021/03/21 02:10:01;;;;;;;10.32;2.70;;;;;;;;;;4088016;35;19961;-83
2021/03/21 02:12:29;;;;;;;13.93;2.67;;;;;;;;;;4055243;35;20071;-83
2021/03/21 02:15:16;;;;;;;15.93;2.78;;;;;;;;;;4083119;35;20109;-83
2021/03/21 02:17:50;;;;;;;10.95;9.57;;;;;;;;;;4089550;35;20152;-84
2021/03/21 02:20:24;;;;;;;16.98;6.87;;;;;;;;;;4091136;35;20081;-83
2021/03/21 02:23:01;;;;;;;17.35;7.60;;;;;;;;;;4084699;35;20109;-84
2021/03/21 02:25:42;;;;;;;18.17;9.40;;;;;;;;;;4085063;35;20093;-84
2021/03/21 02:28:17;;;;;;;12.95;8.18;;;;;;;;;;4086358;35;20062;-84
2021/03/21 02:30:44;;;;;;;;;;;;;;;;;;4090247;35;20076;-84
2021/03/21 02:33:25;;;;;;;12.18;2.75;;;;;;;;;;4077139;35;19992;-83
2021/03/21 02:36:05;;;;;;;12.10;2.45;;;;;;;;;;4088037;35;20542;-84
2021/03/21 02:38:33;;;;;;;13.50;2.30;;;;;;;;;;4082621;35;20273;-82
2021/03/21 02:41:13;;;;;;;13.30;2.72;;;;;;;;;;4087838;35;20062;-84
2021/03/21 02:43:44;;;;;;;13.35;2.65;;;;;;;;;;4090432;35;20446;-83
2021/03/21 02:46:18;;;;;;;15.18;2.87;;;;;;;;;;4084599;35;20101;-84
2021/03/21 02:48:50;;;;;;;17.40;3.00;;;;;;;;;;4083484;35;20864;-85
2021/03/21 02:51:24;;;;;;;17.67;2.58;;;;;;;;;;4082460;35;20132;-84
2021/03/21 02:54:31;;;;;;;14.95;2.80;;;;;;;;;;4085004;35;20116;-85
2021/03/21 02:57:09;;;;;;;11.80;2.65;;;;;;;;;;4086575;35;20080;-83
2021/03/21 02:59:40;;;;;;;10.90;2.53;;;;;;;;;;4083466;35;20062;-84
2021/03/21 03:02:10;;;;;;;12.23;2.65;;;;;;;;;;4087653;35;20072;-84
2021/03/21 03:04:46;;;;;;;17.25;3.28;;;;;;;;;;4088301;35;20498;-83
2021/03/21 03:07:33;;;;;;;13.67;2.60;;;;;;;;;;4089726;35;20421;-84
2021/03/21 03:10:22;;;;;;;12.68;2.62;;;;;;;;;;4086368;35;20178;-83
2021/03/21 03:12:53;;;;;;;19.25;3.45;;;;;;;;;;4098781;34;20069;-96
2021/03/21 03:15:22;;;;;;;10.98;2.83;;;;;;;;;;4094306;35;20916;-93
2021/03/21 03:17:51;;;;;;;14.82;3.17;;;;;;;;;;4095795;35;20084;-96
2021/03/21 03:20:19;;;;;;;17.70;5.20;;;;;;;;;;4101587;35;20069;-95
2021/03/21 03:22:56;;;;;;;10.85;2.53;;;;;;;;;;4105654;34;20107;-96
2021/03/21 03:25:31;;;;;;;15.13;4.37;;;;;;;;;;4099309;34;20437;-94
2021/03/21 03:28:11;;;;;;;23.87;14.07;;;;;;;;;;4119050;34;20127;-95
2021/03/21 03:30:39;;;;;;;15.35;4.95;;;;;;;;;;4116134;34;20113;-95
2021/03/21 03:33:12;;;;;;;21.17;15.02;;;;;;;;;;4097550;35;20086;-95
2021/03/21 03:35:45;;;;;;;19.65;4.05;;;;;;;;;;4107029;34;20089;-96
2021/03/21 03:38:15;;;;;;;18.20;3.95;;;;;;;;;;4104374;34;20097;-95
2021/03/21 03:40:45;;;;;;;17.75;3.30;;;;;;;;;;4098259;35;20053;-96
2021/03/21 03:43:28;;;;;;;14.82;3.95;;;;;;;;;;4106724;34;20475;-95
2021/03/21 03:46:07;;;;;;;20.48;3.97;;;;;;;;;;4093108;34;20058;-96
2021/03/21 03:48:42;;;;;;;15.25;3.35;;;;;;;;;;4097681;34;20090;-93
2021/03/21 03:51:30;;;;;;;20.98;2.65;;;;;;;;;;4107184;34;20080;-96
2021/03/21 03:54:17;;;;;;;16.55;3.70;;;;;;;;;;4095799;35;20094;-94
2021/03/21 03:56:51;;;;;;;23.12;3.65;;;;;;;;;;4098581;34;20058;-96
2021/03/21 03:59:23;;;;;;;14.90;2.85;;;;;;;;;;4096938;35;20061;-96
2021/03/21 04:01:56;;;;;;;12.40;2.90;;;;;;;;;;4106239;34;20172;-95
2021/03/21 04:04:35;;;;;;;17.35;3.08;;;;;;;;;;4109378;34;20066;-96
2021/03/21 04:07:12;;;;;;;14.93;2.67;;;;;;;;;;4098587;35;20069;-96
2021/03/21 04:09:48;;;;;;;8.38;2.55;;;;;;;;;;4091106;35;20079;-96
2021/03/21 04:12:39;;;;;;;14.20;2.70;;;;;;;;;;4086269;34;20171;-95
2021/03/21 04:15:17;;;;;;;12.40;2.83;;;;;;;;;;4099725;35;20124;-96
2021/03/21 04:17:58;;;;;;;15.25;8.48;;;;;;;;;;4091757;34;20093;-96
2021/03/21 04:20:33;;;;;;;9.32;3.80;;;;;;;;;;4096624;35;20104;-95
2021/03/21 04:23:06;;;;;;;11.18;2.90;;;;;;;;;;4083000;35;20053;-96
2021/03/21 04:25:44;;;;;;;12.98;2.85;;;;;;;;;;4080302;35;20066;-96
2021/03/21 04:28:21;;;;;;;10.90;2.72;;;;;;;;;;4089085;35;20058;-94
2021/03/21 04:30:53;;;;;;;8.23;2.33;;;;;;;;;;4108262;35;20082;-95
2021/03/21 04:33:24;;;;;;;17.35;2.47;;;;;;;;;;4081095;34;20098;-96
2021/03/21 04:35:59;;;;;;;12.13;2.90;;;;;;;;;;4087788;35;20377;-94
2021/03/21 04:38:27;;;;;;;15.30;2.40;;;;;;;;;;4083372;34;20120;-95
2021/03/21 04:41:00;;;;;;;13.32;2.45;;;;;;;;;;4086307;35;20091;-95
2021/03/21 04:43:40;;;;;;;10.75;2.67;;;;;;;;;;4089571;35;20074;-95
2021/03/21 04:47:02;;;;;;;11.10;2.45;;;;;;;;;;4102559;34;20046;-94
2021/03/21 04:49:33;;;;;;;10.15;2.35;;;;;;;;;;4085053;35;20128;-94
2021/03/21 04:52:22;;;;;;;9.07;2.60;;;;;;;;;;4095096;35;20101;-96
2021/03/21 04:54:52;;;;;;;8.35;2.15;;;;;;;;;;4092055;35;20056;-96
2021/03/21 04:57:34;;;;;;;11.43;2.85;;;;;;;;;;4088243;35;20082;-95
2021/03/21 05:00:08;;;;;;;8.80;1.77;;;;;;;;;;4099123;34;20083;-93
2021/03/21 05:02:38;;;;;;;8.32;2.00;;;;;;;;;;4108896;34;20061;-95
2021/03/21 05:05:17;;;;;;;8.40;2.45;;;;;;;;;;4089853;35;20065;-95
2021/03/21 05:07:50;;;;;;;7.53;2.03;;;;;;;;;;4099998;35;20087;-95
2021/03/21 05:10:21;;;;;;;8.05;1.70;;;;;;;;;;4082669;35;20057;-95
2021/03/21 05:12:53;;;;;;;7.30;1.65;;;;;;;;;;4103474;35;20066;-94
2021/03/21 05:15:24;;;;;;;11.00;2.20;;;;;;;;;;4104290;35;20148;-94
2021/03/21 05:17:55;;;;;;;7.20;2.00;;;;;;;;;;4109153;34;20133;-96
2021/03/21 05:20:31;;;;;;;8.88;2.08;;;;;;;;;;4092104;34;21395;-96
2021/03/21 05:23:16;;;;;;;8.70;1.52;;;;;;;;;;4099110;34;20151;-96
2021/03/21 05:25:45;;;;;;;;;;;;;;;;;;4098433;35;20054;-96
2021/03/21 05:28:29;;;;;;;9.70;2.10;;;;;;;;;;4093936;34;20245;-94
2021/03/21 05:31:00;;;;;;;13.02;2.17;;;;;;;;;;4097643;35;20057;-95
2021/03/21 05:33:32;;;;;;;11.07;2.25;;;;;;;;;;4089512;35;20117;-95
2021/03/21 05:36:10;;;;;;;7.57;1.73;;;;;;;;;;4100548;35;20066;-95
2021/03/21 05:38:46;;;;;;;13.80;1.92;;;;;;;;;;4097040;35;20058;-95
2021/03/21 05:41:37;;;;;;;7.35;1.77;;;;;;;;;;4092916;34;20049;-96
2021/03/21 05:44:32;;;;;;;12.60;2.22;;;;;;;;;;4096310;35;20507;-96
2021/03/21 05:47:19;;;;;;;12.90;2.22;;;;;;;;;;4089670;35;20371;-95
2021/03/21 05:50:07;;;;;;;11.05;2.40;;;;;;;;;;4095487;35;20520;-95
2021/03/21 05:52:36;;;;;;;10.10;2.25;;;;;;;;;;4094419;35;20058;-96
2021/03/21 05:55:25;;;;;;;9.32;2.47;;;;;;;;;;4100736;35;21484;-95
2021/03/21 05:58:08;;;;;;;11.50;2.33;;;;;;;;;;4094945;35;20084;-96
2021/03/21 06:01:21;;;;;;;10.23;2.35;;;;;;;;;;4096629;35;20111;-96
2021/03/21 06:03:55;;;;;;;10.38;1.80;;;;;;;;;;4085197;34;20158;-96
2021/03/21 06:06:39;;;;;;;10.75;2.67;;;;;;;;;;4105431;35;20474;-95
2021/03/21 06:09:08;;;;;;;;;;;;;;;;;;4107834;35;20080;-96
2021/03/21 06:11:45;;;;;;;10.25;2.40;;;;;;;;;;4090917;35;19949;-96
2021/03/21 06:14:25;;;;;;;;;;;;;;;;;;4095869;35;20182;-95
2021/03/21 06:17:23;;;;;;;10.20;2.22;;;;;;;;;;4095394;35;19996;-95
2021/03/21 06:20:11;;;;;;;12.63;2.95;;;;;;;;;;4086063;35;20178;-96
2021/03/21 06:22:41;;;;;;;14.18;2.80;;;;;;;;;;4100948;34;20057;-96
2021/03/21 06:25:37;;;;;;;14.10;3.10;;;;;;;;;;4112656;34;20046;-95
2021/03/21 06:28:11;;;;;;;14.60;3.08;;;;;;;;;;4094448;34;20060;-96
2021/03/21 06:31:23;;;;;;;20.92;2.53;;;;;;;;;;4096253;35;20469;-95
2021/03/21 06:34:10;;;;;;;10.82;2.17;;;;;;;;;;4086814;35;20072;-95
2021/03/21 06:36:45;;;;;;;10.48;2.50;;;;;;;;;;4103920;35;20084;-96
2021/03/21 06:39:29;;;;;;;13.15;2.60;;;;;;;;;;4114306;34;20069;-95
2021/03/21 06:42:06;;;;;;;8.02;2.12;;;;;;;;;;4107258;35;20058;-96
2021/03/21 06:44:39;;;;;;;9.73;2.17;;;;;;;;;;4094027;35;20685;-96
2021/03/21 06:47:17;;;;;;;11.85;2.33;;;;;;;;;;4083434;34;20138;-95
2021/03/21 06:49:53;;;;;;;12.80;2.20;;;;;;;;;;4094845;35;20054;-95
2021/03/21 06:52:25;;;;;;;12.37;2.65;;;;;;;;;;4090252;35;20071;-96
2021/03/21 06:54:57;;;;;;;13.70;2.50;;;;;;;;;;4094819;35;20084;-96
2021/03/21 06:57:47;;;;;;;12.02;2.87;;;;;;;;;;4089845;34;20092;-94
2021/03/21 07:00:48;;;;;;;12.65;2.42;;;;;;;;;;4092382;35;20850;-95
2021/03/21 07:03:31;;;;;;;17.62;2.40;;;;;;;;;;4086633;34;20413;-95
2021/03/21 07:06:01;;;;;;;14.23;2.33;;;;;;;;;;4091163;35;20098;-96
2021/03/21 07:08:30;;;;;;;14.50;2.30;;;;;;;;;;4083011;35;20049;-94
2021/03/21 07:11:19;;;;;;;16.83;2.45;;;;;;;;;;4092732;35;20042;-96
2021/03/21 07:14:03;;;;;;;8.27;1.90;;;;;;;;;;4103869;34;20073;-96
2021/03/21 07:16:33;;;;;;;9.30;2.05;;;;;;;;;;4092876;35;20105;-96
2021/03/21 07:19:13;;;;;;;15.75;2.22;;;;;;;;;;4095700;35;20049;-96
2021/03/21 07:22:01;;;;;;;12.30;1.90;;;;;;;;;;4090845;35;20065;-94
2021/03/21 07:24:48;;;;;;;12.52;2.20;;;;;;;;;;4083000;35;20452;-95
2021/03/21 07:27:31;;;;;;;11.02;1.90;;;;;;;;;;4095623;35;20375;-96
2021/03/21 07:30:21;;;;;;;11.95;1.90;;;;;;;;;;4080815;35;20159;-96
2021/03/21 07:33:06;;;;;;;12.27;2.33;;;;;;;;;;4094961;35;20053;-94
2021/03/21 07:35:46;;;;;;;9.37;1.50;;;;;;;;;;4089436;35;20458;-95
2021/03/21 07:38:28;;;;;;;8.55;2.03;;;;;;;;;;4092230;34;20096;-95
2021/03/21 07:41:16;;;;;;;14.68;2.15;;;;;;;;;;4092703;35;20061;-95
2021/03/21 07:44:16;;;;;;;9.02;1.95;;;;;;;;;;4096185;35;20065;-96
2021/03/21 07:47:04;;;;;;;9.73;1.65;;;;;;;;;;4081863;35;20084;-96
2021/03/21 07:49:41;;;;;;;7.07;2.00;;;;;;;;;;4103769;34;20091;-95
2021/03/21 07:52:40;;;;;;;12.35;8.13;;;;;;;;;;4106388;35;20305;-94
2021/03/21 07:55:22;;;;;;;16.98;13.68;;;;;;;;;;4088052;35;20084;-96
2021/03/21 07:58:15;;;;;;;19.40;17.55;;;;;;;;;;4101946;34;20076;-94
2021/03/21 08:00:48;;;;;;;8.65;7.75;;;;;;;;;;4102428;34;20077;-95
2021/03/21 08:03:44;;;;;;;9.00;3.35;;;;;;;;;;4083714;35;20477;-96
2021/03/21 08:06:22;;;;;;;12.60;9.48;;;;;;;;;;4082903;35;20061;-95
2021/03/21 08:09:04;;;;;;;9.98;5.05;;;;;;;;;;4097642;35;20109;-96
2021/03/21 08:11:36;;;;;;;16.25;7.37;;;;;;;;;;4102801;35;20073;-96
2021/03/21 08:17:23;;;;;;;6.05;2.10;;;;;;;;;;4101433;34;20076;-95
2021/03/21 08:20:06;;;;;;;6.20;2.25;;;;;;;;;;4098927;35;20124;-95
2021/03/21 08:22:57;;;;;;;;;;;;;;;;;;;;;
2021/03/21 08:26:12;;;;;;;5.20;1.52;;;;;;;;;;4129299;29;20115;-94
2021/03/21 08:29:17;;;;;;;6.75;2.05;;;;;;;;;;4096058;34;20061;-95
2021/03/21 08:31:47;;;;;;;6.97;3.22;;;;;;;;;;4098521;34;20058;-94
2021/03/21 08:34:28;;;;;;;6.07;3.25;;;;;;;;;;4112266;34;20083;-93
2021/03/21 08:36:56;;;;;;;9.60;6.40;;;;;;;;;;4100837;34;20111;-94
2021/03/21 08:39:26;;;;;;;6.93;2.22;;;;;;;;;;4108611;34;20078;-96
2021/03/21 08:41:55;;;;;;;5.95;1.50;;;;;;;;;;4103834;34;20115;-96
2021/03/21 08:44:27;;;;;;;4.20;1.10;;;;;;;;;;4095967;34;20096;-95
2021/03/21 08:47:07;;;;;;;7.12;1.50;;;;;;;;;;4094201;34;20077;-96
2021/03/21 08:50:40;;;;;;;6.85;1.70;;;;;;;;;;4081066;34;20077;-96
2021/03/21 08:54:22;;;;;;;6.15;1.67;;;;;;;;;;4113017;34;20821;-96
2021/03/21 08:57:29;;;;;;;6.72;1.95;;;;;;;;;;4106488;34;20084;-95
2021/03/21 09:00:24;;;;;;;5.75;1.80;;;;;;;;;;4116347;34;20057;-95
2021/03/21 09:03:44;;;;;;;4.28;1.30;;;;;;;;;;4095955;35;20055;-95
2021/03/21 09:07:01;;;;;;;5.90;1.40;;;;;;;;;;4090507;35;20073;-96
2021/03/21 09:10:17;;;;;;;6.57;1.37;;;;;;;;;;4095707;34;20057;-96
2021/03/21 09:13:31;;;;;;;4.80;1.48;;;;;;;;;;4083124;35;20067;-94
2021/03/21 09:16:55;;;;;;;4.78;1.33;;;;;;;;;;4093986;35;20074;-96
2021/03/21 09:20:02;;;;;;;5.03;1.52;;;;;;;;;;4094311;35;20093;-96
2021/03/21 09:23:51;;;;;;;4.95;1.40;;;;;;;;;;4035346;35;20072;-95
2021/03/21 09:26:59;;;;;;;4.30;1.23;;;;;;;;;;4039176;35;20115;-96
2021/03/21 09:30:51;;;;;;;;;;;;;;;;;;;;;
2021/03/21 09:34:26;;;;;;;7.28;1.70;;;;;;;;;;4071531;35;19961;-96
2021/03/21 09:37:57;;;;;;;5.25;1.70;;;;;;;;;;4077493;35;20148;-94
2021/03/21 09:45:53;;;;;;;5.82;1.50;;;;;;;;;;4060573;35;20166;-96
2021/03/21 10:50:10;;;;;;;2.92;1.00;;;;;;;;;;4614748;29;20124;-84
2021/03/21 10:52:39;;;;;;;5.95;1.20;;;;;;;;;;4086674;35;20062;-83
2021/03/21 10:55:28;;;;;;;3.17;1.15;;;;;;;;;;4088394;35;20089;-83
2021/03/21 10:58:21;;;;;;;6.87;1.60;;;;;;;;;;4089040;35;20070;-84
2021/03/21 11:01:07;;;;;;;6.37;1.80;;;;;;;;;;4090634;35;20053;-84
2021/03/21 11:03:36;;;;;;;4.93;1.90;;;;;;;;;;4088961;35;20171;-85
2021/03/21 11:06:05;;;;;;;4.75;1.10;;;;;;;;;;4090709;35;20080;-84
2021/03/21 11:08:34;;;;;;;13.05;1.87;;;;;;;;;;4094717;35;20068;-84
2021/03/21 11:11:21;;;;;;;6.87;1.10;;;;;;;;;;4095987;35;20120;-84
2021/03/21 11:13:50;;;;;;;6.20;1.30;;;;;;;;;;4094355;35;20062;-84
2021/03/21 11:16:20;;;;;;;5.93;1.35;;;;;;;;;;4090798;35;20473;-84
2021/03/21 11:19:02;;;;;;;8.77;1.52;;;;;;;;;;4085799;35;20173;-83
2021/03/21 11:21:47;;;;;;;10.02;1.83;;;;;;;;;;4099150;35;20061;-83
2021/03/21 11:24:15;;;;;;;7.62;1.60;;;;;;;;;;4089227;35;20112;-84
2021/03/21 11:26:43;;;;;;;5.25;1.50;;;;;;;;;;4086421;35;20519;-84
2021/03/21 11:29:13;;;;;;;5.12;1.67;;;;;;;;;;4083520;35;20805;-83
2021/03/21 11:31:50;;;;;;;5.93;1.60;;;;;;;;;;4096563;35;20069;-84
2021/03/21 11:34:25;;;;;;;6.62;1.58;;;;;;;;;;4084883;35;20124;-84
2021/03/21 11:37:01;;;;;;;3.53;1.20;;;;;;;;;;4075545;35;20113;-85
2021/03/21 11:39:38;;;;;;;3.45;1.20;;;;;;;;;;4089395;35;20121;-84
2021/03/21 11:42:19;;;;;;;2.40;1.25;;;;;;;;;;4094135;35;20109;-85
2021/03/21 11:44:50;;;;;;;3.70;1.30;;;;;;;;;;4091843;35;20502;-85
2021/03/21 11:47:29;;;;;;;2.35;1.27;;;;;;;;;;4080941;35;20185;-84
2021/03/21 11:50:00;;;;;;;6.18;1.50;;;;;;;;;;4095078;35;20084;-85
2021/03/21 11:52:29;;;;;;;15.70;2.47;;;;;;;;;;4097362;35;20360;-85
2021/03/21 11:55:00;;;;;;;8.63;1.70;;;;;;;;;;4083753;35;20099;-84
2021/03/21 11:57:33;;;;;;;5.12;1.60;;;;;;;;;;4087984;35;20467;-85
2021/03/21 12:00:04;;;;;;;7.97;1.60;;;;;;;;;;4095026;35;20105;-85
2021/03/21 12:02:51;;;;;;;4.53;1.70;;;;;;;;;;4093345;35;20387;-85
2021/03/21 12:05:22;;;;;;;9.75;1.90;;;;;;;;;;4095258;35;20125;-84
2021/03/21 12:07:51;;;;;;;7.80;1.80;;;;;;;;;;4093150;35;20705;-84
2021/03/21 12:10:30;;;;;;;7.60;1.58;;;;;;;;;;4089425;35;20058;-84
2021/03/21 12:12:58;;;;;;;3.00;1.30;;;;;;;;;;4097962;35;20560;-85
2021/03/21 12:15:26;;;;;;;6.07;1.37;;;;;;;;;;4100193;35;20058;-84
2021/03/21 12:18:02;;;;;;;5.12;1.30;;;;;;;;;;4094120;35;20079;-84
2021/03/21 12:20:31;;;;;;;7.32;1.80;;;;;;;;;;4091315;35;20084;-84
2021/03/21 12:22:59;;;;;;;4.80;1.42;;;;;;;;;;4098574;34;20070;-84
2021/03/21 12:25:30;;;;;;;6.40;1.65;;;;;;;;;;4105352;35;20401;-85
2021/03/21 12:28:27;;;;;;;5.53;1.60;;;;;;;;;;4100907;35;20057;-84
2021/03/21 12:30:56;;;;;;;8.15;1.70;;;;;;;;;;4085797;35;20176;-84
2021/03/21 12:33:25;;;;;;;7.82;1.92;;;;;;;;;;4095001;35;20070;-85
2021/03/21 12:35:54;;;;;;;5.18;1.65;;;;;;;;;;4099616;35;20066;-84
2021/03/21 12:38:41;;;;;;;12.93;1.62;;;;;;;;;;4100205;35;20135;-84
2021/03/21 12:41:29;;;;;;;5.15;1.30;;;;;;;;;;4087140;35;20506;-84
2021/03/21 12:44:09;;;;;;;10.35;1.98;;;;;;;;;;4093730;35;20460;-84
2021/03/21 12:46:45;;;;;;;9.02;1.55;;;;;;;;;;4091699;35;20058;-84
2021/03/21 12:49:37;;;;;;;7.95;1.60;;;;;;;;;;4100218;35;20159;-84
2021/03/21 12:52:22;;;;;;;7.75;1.73;;;;;;;;;;4090821;35;20081;-84
2021/03/21 12:54:52;;;;;;;6.90;1.67;;;;;;;;;;4087654;35;20265;-84
2021/03/21 12:57:21;;;;;;;4.28;1.50;;;;;;;;;;4096930;35;20333;-84
2021/03/21 12:59:51;;;;;;;4.82;1.67;;;;;;;;;;4096654;35;20430;-84
2021/03/21 13:02:21;;;;;;;5.60;1.40;;;;;;;;;;4097001;35;20057;-84
2021/03/21 13:04:50;;;;;;;8.43;1.67;;;;;;;;;;4094053;35;20073;-84
2021/03/21 13:07:18;;;;;;;7.12;1.60;;;;;;;;;;4090577;35;20454;-84
2021/03/21 13:09:46;;;;;;;7.47;1.37;;;;;;;;;;4097106;35;20140;-84
2021/03/21 13:12:15;;;;;;;7.00;1.58;;;;;;;;;;4095620;35;20480;-84
2021/03/21 13:14:45;;;;;;;4.10;1.35;;;;;;;;;;4078616;35;20109;-84
2021/03/21 13:17:21;;;;;;;6.45;1.40;;;;;;;;;;4092122;35;20120;-84
2021/03/21 13:19:57;;;;;;;6.37;1.40;;;;;;;;;;4089428;35;20462;-84
2021/03/21 13:22:25;;;;;;;10.10;1.60;;;;;;;;;;4089678;35;20050;-84
2021/03/21 13:24:53;;;;;;;6.45;1.70;;;;;;;;;;4096092;35;20074;-84
2021/03/21 13:27:21;;;;;;;6.47;1.15;;;;;;;;;;4078910;35;20082;-84
2021/03/21 13:29:49;;;;;;;8.30;1.52;;;;;;;;;;4096117;35;20467;-84
2021/03/21 13:32:17;;;;;;;8.23;1.40;;;;;;;;;;4097056;35;20083;-84
2021/03/21 13:34:46;;;;;;;5.15;1.27;;;;;;;;;;4086219;35;20564;-84
2021/03/21 13:37:20;;;;;;;6.62;1.60;;;;;;;;;;4085760;35;20070;-84
2021/03/21 13:39:50;;;;;;;4.03;1.33;;;;;;;;;;4098847;35;20066;-83
2021/03/21 13:42:20;;;;;;;8.27;1.70;;;;;;;;;;4094774;35;20081;-83
2021/03/21 13:44:48;;;;;;;7.47;1.52;;;;;;;;;;4094013;35;20094;-84
2021/03/21 13:47:16;;;;;;;6.57;1.50;;;;;;;;;;4097087;35;20589;-84
2021/03/21 13:49:45;;;;;;;14.93;2.08;;;;;;;;;;4095096;35;20473;-84
2021/03/21 13:52:13;;;;;;;5.72;1.60;;;;;;;;;;4092038;35;20088;-83
2021/03/21 13:54:41;;;;;;;9.00;2.03;;;;;;;;;;4095371;35;20110;-84
2021/03/21 13:57:09;;;;;;;7.45;1.48;;;;;;;;;;4091789;35;20125;-83
2021/03/21 13:59:37;;;;;;;8.90;1.90;;;;;;;;;;4082853;35;20089;-84
2021/03/21 14:02:05;;;;;;;9.13;1.77;;;;;;;;;;4089900;35;20466;-83
2021/03/21 14:04:34;;;;;;;9.88;2.10;;;;;;;;;;4092304;35;20583;-83
2021/03/21 14:07:02;;;;;;;10.25;1.75;;;;;;;;;;4095165;35;20076;-84
2021/03/21 14:09:30;;;;;;;10.07;2.17;;;;;;;;;;4085715;35;20094;-83
2021/03/21 14:11:59;;;;;;;6.75;1.75;;;;;;;;;;4087873;35;20093;-84
2021/03/21 14:14:27;;;;;;;10.02;1.80;;;;;;;;;;4095443;35;20129;-84
2021/03/21 14:16:55;;;;;;;8.23;1.37;;;;;;;;;;4098420;35;20105;-83
2021/03/21 14:19:24;;;;;;;6.10;1.30;;;;;;;;;;4095729;35;20120;-84
2021/03/21 14:21:52;;;;;;;5.45;1.48;;;;;;;;;;4090860;35;20105;-83
2021/03/21 14:24:20;;;;;;;5.40;1.27;;;;;;;;;;4090342;35;20132;-83
2021/03/21 14:26:52;;;;;;;8.55;2.08;;;;;;;;;;4101239;35;20119;-83
2021/03/21 14:29:20;;;;;;;7.80;1.48;;;;;;;;;;4096529;35;20121;-83
2021/03/21 14:31:49;;;;;;;8.90;1.58;;;;;;;;;;4094247;35;20057;-83
2021/03/21 14:34:17;;;;;;;7.82;1.73;;;;;;;;;;4085735;35;20422;-84
2021/03/21 14:36:45;;;;;;;7.10;1.48;;;;;;;;;;4089797;35;20105;-83
2021/03/21 14:39:14;;;;;;;6.35;1.37;;;;;;;;;;4093203;35;20113;-84
2021/03/21 14:41:41;;;;;;;7.22;1.00;;;;;;;;;;4091662;35;20099;-83
2021/03/21 14:44:09;;;;;;;12.77;1.85;;;;;;;;;;4090191;35;20066;-83
2021/03/21 14:46:38;;;;;;;7.82;1.40;;;;;;;;;;4090669;35;20058;-82
2021/03/21 14:49:07;;;;;;;8.13;1.45;;;;;;;;;;4098313;35;20053;-83
2021/03/21 14:51:35;;;;;;;8.52;1.12;;;;;;;;;;4092788;35;20191;-84
2021/03/21 14:54:04;;;;;;;7.43;1.23;;;;;;;;;;4089005;35;20132;-82
2021/03/21 14:56:32;;;;;;;4.10;1.00;;;;;;;;;;4095991;35;20089;-83
2021/03/21 14:59:06;;;;;;;7.35;1.50;;;;;;;;;;4091823;35;20116;-83
2021/03/21 15:01:35;;;;;;;5.97;1.48;;;;;;;;;;4098330;35;20131;-83
2021/03/21 15:04:03;;;;;;;6.78;1.25;;;;;;;;;;4095251;35;20069;-83
2021/03/21 15:06:43;;;;;;;11.15;1.27;;;;;;;;;;4095116;35;20058;-83
2021/03/21 15:09:12;;;;;;;3.37;1.00;;;;;;;;;;4094269;35;20053;-83
2021/03/21 15:11:40;;;;;;;6.85;1.25;;;;;;;;;;4094736;35;20088;-83
2021/03/21 15:14:09;;;;;;;7.95;2.03;;;;;;;;;;4086784;35;20187;-83
2021/03/21 15:16:37;;;;;;;5.70;1.10;;;;;;;;;;4091669;35;20110;-83
2021/03/21 15:19:06;;;;;;;7.12;1.45;;;;;;;;;;4101182;35;20061;-83
2021/03/21 15:21:34;;;;;;;5.60;1.40;;;;;;;;;;4089147;35;20054;-83
2021/03/21 15:24:02;;;;;;;6.32;1.17;;;;;;;;;;4086131;35;20131;-85
2021/03/21 15:26:30;;;;;;;7.03;1.17;;;;;;;;;;4088251;35;20116;-83
2021/03/21 15:28:58;;;;;;;8.40;1.20;;;;;;;;;;4092238;35;20431;-83
2021/03/21 15:31:32;;;;;;;6.30;1.17;;;;;;;;;;4091862;35;20117;-82
2021/03/21 15:34:01;;;;;;;9.52;1.60;;;;;;;;;;4090813;35;20051;-83
2021/03/21 15:36:30;;;;;;;9.40;1.33;;;;;;;;;;4101367;35;20058;-82
2021/03/21 15:38:59;;;;;;;8.48;1.42;;;;;;;;;;4093471;35;20080;-83
2021/03/21 15:41:29;;;;;;;4.28;0.95;;;;;;;;;;4087665;35;20091;-82
2021/03/21 15:43:58;;;;;;;7.97;1.40;;;;;;;;;;4087573;35;20151;-83
2021/03/21 15:46:27;;;;;;;3.87;1.20;;;;;;;;;;4088483;35;20097;-82
2021/03/21 15:48:55;;;;;;;8.60;1.30;;;;;;;;;;4096721;35;20109;-83
2021/03/21 15:51:26;;;;;;;7.40;1.35;;;;;;;;;;4091612;35;20135;-82
2021/03/21 15:53:54;;;;;;;11.32;1.70;;;;;;;;;;4090511;35;20058;-83
2021/03/21 15:56:22;;;;;;;4.95;1.27;;;;;;;;;;4099549;34;20067;-83
2021/03/21 15:59:00;;;;;;;5.68;1.25;;;;;;;;;;4090358;35;20117;-83
2021/03/21 16:01:28;;;;;;;6.53;1.08;;;;;;;;;;4089127;35;20053;-82
2021/03/21 16:04:01;;;;;;;8.30;1.12;;;;;;;;;;4096055;35;20163;-86
2021/03/21 16:06:35;;;;;;;19.67;1.55;;;;;;;;;;4090083;35;20521;-83
2021/03/21 16:09:11;;;;;;;6.28;1.02;;;;;;;;;;4088912;35;20387;-83
2021/03/21 16:11:39;;;;;;;6.50;1.00;;;;;;;;;;4102263;35;20057;-84
2021/03/21 16:14:07;;;;;;;4.20;1.10;;;;;;;;;;4091893;35;20882;-83
2021/03/21 16:16:36;;;;;;;8.30;1.52;;;;;;;;;;4078809;35;20093;-83
2021/03/21 16:19:04;;;;;;;7.05;0.85;;;;;;;;;;4097196;35;20046;-83
2021/03/21 16:21:33;;;;;;;7.40;1.37;;;;;;;;;;4103843;35;20061;-83
2021/03/21 16:24:01;;;;;;;6.53;1.10;;;;;;;;;;4096044;35;20072;-83
2021/03/21 16:26:51;;;;;;;8.32;1.45;;;;;;;;;;4093311;35;20493;-82
2021/03/21 16:29:20;;;;;;;8.43;1.30;;;;;;;;;;4094376;35;20498;-84
2021/03/21 16:31:49;;;;;;;10.07;1.30;;;;;;;;;;4080495;35;20075;-84
2021/03/21 16:34:17;;;;;;;6.30;1.42;;;;;;;;;;4087521;35;20164;-83
2021/03/21 16:36:45;;;;;;;5.60;1.10;;;;;;;;;;4101251;35;20511;-83
2021/03/21 16:39:23;;;;;;;5.28;1.05;;;;;;;;;;4087614;35;20688;-83
2021/03/21 16:41:52;;;;;;;5.20;1.20;;;;;;;;;;4096856;35;20064;-83
2021/03/21 16:44:20;;;;;;;4.35;1.30;;;;;;;;;;4094607;35;20158;-83
2021/03/21 16:46:48;;;;;;;6.45;1.50;;;;;;;;;;4092368;35;20101;-83
2021/03/21 16:49:16;;;;;;;5.10;1.23;;;;;;;;;;4085859;35;20137;-84